createdAt,value
2017-08-31T17:06:05.912Z,35.59
2017-08-31T17:08:33.529Z,34.75
2017-08-31T17:11:01.160Z,34.42
2017-08-31T17:13:28.789Z,34.52
2017-08-31T17:15:56.402Z,34.54
2017-08-31T17:18:23.935Z,34.81
2017-08-31T17:20:51.584Z,35.17
2017-08-31T17:23:19.181Z,35.43
2017-08-31T17:25:46.756Z,35.50
2017-08-31T17:28:14.394Z,35.50
2017-08-31T17:30:41.972Z,35.51
2017-08-31T17:33:09.563Z,35.60
2017-08-31T17:35:37.161Z,35.59
2017-08-31T17:38:04.756Z,36.61
2017-08-31T17:40:32.334Z,35.86
2017-08-31T17:42:59.951Z,35.57
2017-08-31T17:45:27.489Z,35.48
2017-08-31T17:47:55.067Z,35.41
2017-08-31T17:50:22.657Z,35.49
2017-08-31T17:52:50.232Z,35.49
2017-08-31T17:55:17.784Z,35.49
2017-08-31T17:57:45.412Z,35.54
2017-08-31T18:00:13.011Z,35.48
2017-08-31T18:02:40.545Z,35.53
2017-08-31T18:05:08.213Z,35.60
2017-08-31T18:07:35.831Z,35.72
2017-08-31T18:10:03.401Z,35.74
2017-08-31T18:12:31.004Z,35.80
2017-08-31T18:14:58.607Z,36.30
2017-08-31T18:17:26.240Z,36.94
2017-08-31T18:19:53.881Z,37.24
2017-08-31T18:22:21.441Z,37.42
2017-08-31T18:24:49.018Z,37.71
2017-08-31T18:27:16.591Z,37.90
2017-08-31T18:29:44.190Z,38.02
2017-08-31T18:32:11.773Z,38.10
2017-08-31T18:34:39.341Z,37.92
2017-08-31T18:37:06.956Z,37.89
2017-08-31T18:39:34.525Z,37.97
2017-08-31T18:42:02.147Z,38.20
2017-08-31T18:44:29.783Z,38.30
